Time,TemperatureF,DewpointF,PressureIn,WindDirection,WindDirectionDegrees,WindSpeedMPH,WindSpeedGustMPH,Humidity,HourlyPrecipIn,Conditions,Clouds,dailyrainin,SoftwareType,DateUTC
2013-05-22 00:01:00,59.0,52.0,29.84,North,359,0.0,0.0,79,0.00,,,0.00,,2013-05-22 07:01:00,
2013-05-22 00:11:00,59.0,52.0,29.84,North,359,0.0,0.0,79,0.00,,,0.00,,2013-05-22 07:11:00,
2013-05-22 00:21:00,58.0,52.0,29.84,North,359,0.0,0.0,81,0.00,,,0.00,,2013-05-22 07:21:00,
2013-05-22 00:31:00,58.0,52.0,29.84,North,359,0.0,0.0,81,0.00,,,0.00,,2013-05-22 07:31:00,
2013-05-22 00:41:00,58.0,52.0,29.84,North,359,0.0,0.0,81,0.00,,,0.00,,2013-05-22 07:41:00,
2013-05-22 00:52:00,58.0,52.0,29.83,North,359,0.0,0.0,79,0.00,,,0.00,,2013-05-22 07:52:00,
2013-05-22 01:02:00,58.0,51.0,29.83,North,359,0.0,0.0,77,0.00,,,0.00,,2013-05-22 08:02:00,
2013-05-22 01:11:00,58.0,51.0,29.83,North,359,0.0,0.0,77,0.00,,,0.00,,2013-05-22 08:11:00,
2013-05-22 01:21:00,57.0,50.0,29.83,North,359,0.0,0.0,77,0.00,,,0.00,,2013-05-22 08:21:00,
2013-05-22 01:31:00,57.0,50.0,29.83,North,359,0.0,0.0,76,0.00,,,0.00,,2013-05-22 08:31:00,
2013-05-22 01:41:00,57.0,48.0,29.83,North,359,0.0,0.0,72,0.00,,,0.00,,2013-05-22 08:41:00,
2013-05-22 01:52:00,57.0,48.0,29.83,North,359,0.0,0.0,72,0.00,,,0.00,,2013-05-22 08:52:00,
2013-05-22 02:01:00,57.0,47.0,29.83,North,359,0.0,0.0,69,0.00,,,0.00,,2013-05-22 09:01:00,
2013-05-22 02:11:00,56.0,46.0,29.82,North,359,0.0,0.0,69,0.00,,,0.00,,2013-05-22 09:11:00,
2013-05-22 02:21:00,56.0,46.0,29.82,North,359,0.0,0.0,69,0.00,,,0.00,,2013-05-22 09:21:00,
2013-05-22 02:32:00,56.0,46.0,29.82,North,359,0.0,0.0,70,0.00,,,0.00,,2013-05-22 09:32:00,
2013-05-22 02:42:00,56.0,46.0,29.82,North,359,0.0,0.0,70,0.00,,,0.00,,2013-05-22 09:42:00,
2013-05-22 02:53:00,55.0,46.0,29.81,North,359,0.0,0.0,71,0.00,,,0.00,,2013-05-22 09:53:00,
2013-05-22 03:02:00,55.0,46.0,29.81,North,359,0.0,0.0,71,0.00,,,0.00,,2013-05-22 10:02:00,
2013-05-22 03:12:00,54.0,44.0,29.81,North,359,0.0,0.0,70,0.00,,,0.00,,2013-05-22 10:12:00,
2013-05-22 03:22:00,54.0,44.0,29.81,North,359,0.0,0.0,70,0.00,,,0.00,,2013-05-22 10:22:00,
2013-05-22 03:32:00,54.0,44.0,29.80,North,359,0.0,0.0,69,0.00,,,0.00,,2013-05-22 10:32:00,
2013-05-22 03:42:00,55.0,44.0,29.80,North,359,0.0,0.0,67,0.00,,,0.00,,2013-05-22 10:42:00,
2013-05-22 03:52:00,55.0,44.0,29.80,North,359,0.0,0.0,67,0.00,,,0.00,,2013-05-22 10:52:00,
2013-05-22 04:02:00,55.0,44.0,29.79,North,359,0.0,0.0,67,0.00,,,0.00,,2013-05-22 11:02:00,
2013-05-22 04:11:00,54.0,44.0,29.79,North,359,0.0,0.0,69,0.00,,,0.00,,2013-05-22 11:11:00,
2013-05-22 04:21:00,54.0,44.0,29.79,North,359,0.0,0.0,69,0.00,,,0.00,,2013-05-22 11:21:00,
2013-05-22 04:32:00,53.0,45.0,29.79,North,359,0.0,0.0,73,0.00,,,0.00,,2013-05-22 11:32:00,
2013-05-22 04:41:00,53.0,45.0,29.78,North,359,0.0,0.0,74,0.00,,,0.00,,2013-05-22 11:41:00,
2013-05-22 04:52:00,53.0,45.0,29.78,North,359,0.0,0.0,74,0.00,,,0.00,,2013-05-22 11:52:00,
2013-05-22 05:02:00,53.0,46.0,29.78,North,359,0.0,0.0,76,0.00,,,0.00,,2013-05-22 12:02:00,
2013-05-22 05:11:00,52.0,45.0,29.78,North,359,0.0,0.0,76,0.00,,,0.00,,2013-05-22 12:11:00,
2013-05-22 05:22:00,52.0,45.0,29.78,North,359,0.0,0.0,76,0.00,,,0.00,,2013-05-22 12:22:00,
2013-05-22 05:31:00,52.0,45.0,29.77,North,359,0.0,0.0,76,0.00,,,0.00,,2013-05-22 12:31:00,
2013-05-22 05:42:00,52.0,45.0,29.77,North,359,0.0,0.0,78,0.00,,,0.00,,2013-05-22 12:42:00,
2013-05-22 05:52:00,52.0,45.0,29.77,North,359,0.0,0.0,78,0.00,,,0.00,,2013-05-22 12:52:00,
2013-05-22 06:01:00,52.0,46.0,29.77,North,359,0.0,0.0,81,0.00,,,0.00,,2013-05-22 13:01:00,
2013-05-22 06:11:00,52.0,46.0,29.77,North,359,0.0,0.0,81,0.00,,,0.00,,2013-05-22 13:11:00,
2013-05-22 06:21:00,53.0,48.0,29.77,North,359,0.0,0.0,82,0.00,,,0.00,,2013-05-22 13:21:00,
2013-05-22 06:31:00,53.0,48.0,29.77,North,359,0.0,0.0,84,0.00,,,0.00,,2013-05-22 13:31:00,
2013-05-22 06:41:00,54.0,49.0,29.78,North,359,0.0,0.0,82,0.00,,,0.00,,2013-05-22 13:41:00,
2013-05-22 06:52:00,54.0,49.0,29.78,North,359,0.0,0.0,82,0.00,,,0.00,,2013-05-22 13:52:00,
2013-05-22 07:02:00,61.0,50.0,29.77,North,359,0.0,0.0,68,0.00,,,0.00,,2013-05-22 14:02:00,
2013-05-22 07:11:00,63.0,50.0,29.78,North,359,0.0,0.0,62,0.00,,,0.00,,2013-05-22 14:11:00,
2013-05-22 07:32:00,64.0,49.0,29.78,North,359,0.0,0.0,58,0.00,,,0.00,,2013-05-22 14:32:00,
2013-05-22 07:41:00,61.0,47.0,29.78,North,359,0.0,0.0,61,0.00,,,0.00,,2013-05-22 14:41:00,
2013-05-22 07:52:00,61.0,47.0,29.78,North,359,0.0,0.0,61,0.00,,,0.00,,2013-05-22 14:52:00,
2013-05-22 08:01:00,60.0,48.0,29.78,North,359,0.0,0.0,65,0.00,,,0.00,,2013-05-22 15:01:00,
2013-05-22 08:11:00,61.0,48.0,29.78,North,359,0.0,0.0,63,0.00,,,0.00,,2013-05-22 15:11:00,
2013-05-22 08:21:00,61.0,48.0,29.78,North,359,0.0,0.0,63,0.00,,,0.00,,2013-05-22 15:21:00,
2013-05-22 08:32:00,63.0,48.0,29.78,North,359,0.0,0.0,58,0.00,,,0.00,,2013-05-22 15:32:00,
2013-05-22 08:42:00,63.0,48.0,29.78,North,359,0.0,0.0,58,0.00,,,0.00,,2013-05-22 15:42:00,
2013-05-22 08:53:00,64.0,47.0,29.78,North,359,0.0,0.0,54,0.00,,,0.00,,2013-05-22 15:53:00,
2013-05-22 09:02:00,66.0,46.0,29.77,North,359,0.0,0.0,49,0.00,,,0.00,,2013-05-22 16:02:00,
2013-05-22 09:12:00,67.0,44.0,29.77,North,359,0.0,0.0,44,0.00,,,0.00,,2013-05-22 16:12:00,
2013-05-22 09:22:00,67.0,44.0,29.77,North,359,0.0,0.0,44,0.00,,,0.00,,2013-05-22 16:22:00,
2013-05-22 09:32:00,69.0,42.0,29.77,North,359,0.0,0.0,37,0.00,,,0.00,,2013-05-22 16:32:00,
2013-05-22 09:42:00,71.0,43.0,29.77,North,359,0.0,0.0,36,0.00,,,0.00,,2013-05-22 16:42:00,
2013-05-22 09:52:00,71.0,43.0,29.77,North,359,0.0,0.0,36,0.00,,,0.00,,2013-05-22 16:52:00,
2013-05-22 10:02:00,73.0,42.0,29.78,North,359,0.0,0.0,33,0.00,,,0.00,,2013-05-22 17:02:00,
2013-05-22 10:11:00,74.0,43.0,29.77,North,359,0.0,0.0,33,0.00,,,0.00,,2013-05-22 17:11:00,
2013-05-22 10:22:00,74.0,43.0,29.77,North,359,0.0,0.0,33,0.00,,,0.00,,2013-05-22 17:22:00,
2013-05-22 10:32:00,75.0,45.0,29.77,North,359,0.0,0.0,34,0.00,,,0.00,,2013-05-22 17:32:00,
2013-05-22 10:42:00,75.0,45.0,29.77,North,359,0.0,0.0,34,0.00,,,0.00,,2013-05-22 17:42:00,
2013-05-22 10:53:00,75.0,42.0,29.77,North,359,0.0,0.0,31,0.00,,,0.00,,2013-05-22 17:53:00,
2013-05-22 11:02:00,77.0,40.0,29.77,North,359,0.0,0.0,27,0.00,,,0.00,,2013-05-22 18:02:00,
2013-05-22 11:14:00,79.0,39.0,29.77,North,359,0.0,0.0,24,0.00,,,0.00,,2013-05-22 18:14:00,
2013-05-22 11:33:00,79.0,38.0,29.77,North,359,0.0,0.0,23,0.00,,,0.00,,2013-05-22 18:33:00,
2013-05-22 11:52:00,79.0,38.0,29.78,North,359,0.0,0.0,23,0.00,,,0.00,,2013-05-22 18:52:00,
2013-05-22 12:02:00,79.0,38.0,29.78,North,359,0.0,0.0,23,0.00,,,0.00,,2013-05-22 19:02:00,
2013-05-22 12:11:00,80.0,40.0,29.78,North,359,0.0,0.0,24,0.00,,,0.00,,2013-05-22 19:11:00,
2013-05-22 12:21:00,80.0,40.0,29.78,North,359,0.0,0.0,24,0.00,,,0.00,,2013-05-22 19:21:00,
2013-05-22 12:31:00,80.0,43.0,29.78,North,359,0.0,0.0,27,0.00,,,0.00,,2013-05-22 19:31:00,
2013-05-22 12:41:00,79.0,43.0,29.78,North,359,0.0,0.0,28,0.00,,,0.00,,2013-05-22 19:41:00,
2013-05-22 13:01:00,80.0,43.0,29.78,North,359,0.0,0.0,27,0.00,,,0.00,,2013-05-22 20:01:00,
2013-05-22 13:11:00,80.0,42.0,29.78,North,359,0.0,0.0,26,0.00,,,0.00,,2013-05-22 20:11:00,
2013-05-22 13:21:00,80.0,42.0,29.78,North,359,0.0,0.0,26,0.00,,,0.00,,2013-05-22 20:21:00,
2013-05-22 13:32:00,80.0,42.0,29.78,North,359,0.0,0.0,26,0.00,,,0.00,,2013-05-22 20:32:00,
2013-05-22 13:41:00,80.0,41.0,29.78,North,359,0.0,0.0,25,0.00,,,0.00,,2013-05-22 20:41:00,
2013-05-22 14:01:00,81.0,40.0,29.78,North,359,0.0,0.0,23,0.00,,,0.00,,2013-05-22 21:01:00,
2013-05-22 14:11:00,81.0,41.0,29.78,North,359,0.0,0.0,24,0.00,,,0.00,,2013-05-22 21:11:00,
2013-05-22 14:21:00,81.0,41.0,29.78,North,359,0.0,0.0,24,0.00,,,0.00,,2013-05-22 21:21:00,
2013-05-22 14:32:00,82.0,39.0,29.77,North,359,0.0,0.0,22,0.00,,,0.00,,2013-05-22 21:32:00,
2013-05-22 14:42:00,82.0,39.0,29.77,North,359,0.0,0.0,22,0.00,,,0.00,,2013-05-22 21:42:00,
2013-05-22 14:52:00,82.0,42.0,29.77,North,359,0.0,0.0,24,0.00,,,0.00,,2013-05-22 21:52:00,
2013-05-22 15:02:00,81.0,40.0,29.75,North,359,0.0,0.0,23,0.00,,,0.00,,2013-05-22 22:02:00,
2013-05-22 15:12:00,81.0,35.0,29.76,SSW,205,20.0,21.0,19,0.00,,,0.00,,2013-05-22 22:12:00,
2013-05-22 15:22:00,81.0,35.0,29.76,SSW,205,20.0,21.0,19,0.00,,,0.00,,2013-05-22 22:22:00,
2013-05-22 15:33:00,81.0,39.0,29.75,SW,226,0.0,0.0,22,0.00,,,0.00,,2013-05-22 22:33:00,
2013-05-22 15:42:00,81.0,40.0,29.75,SW,226,0.0,0.0,23,0.00,,,0.00,,2013-05-22 22:42:00,
2013-05-22 15:52:00,81.0,40.0,29.75,SW,226,0.0,0.0,23,0.00,,,0.00,,2013-05-22 22:52:00,
2013-05-22 16:02:00,80.0,38.0,29.75,SW,226,0.0,0.0,22,0.00,,,0.00,,2013-05-22 23:02:00,
2013-05-22 16:12:00,80.0,37.0,29.74,SW,226,0.0,0.0,21,0.00,,,0.00,,2013-05-22 23:12:00,
2013-05-22 16:21:00,80.0,37.0,29.74,SW,226,0.0,0.0,21,0.00,,,0.00,,2013-05-22 23:21:00,
2013-05-22 16:32:00,80.0,37.0,29.73,SSW,193,0.0,0.0,21,0.00,,,0.00,,2013-05-22 23:32:00,
2013-05-22 16:42:00,79.0,37.0,29.73,SSW,193,0.0,0.0,22,0.00,,,0.00,,2013-05-22 23:42:00,
2013-05-22 16:52:00,79.0,37.0,29.73,SSW,193,0.0,0.0,22,0.00,,,0.00,,2013-05-22 23:52:00,
2013-05-22 17:01:00,79.0,32.0,29.73,South,176,0.0,0.0,18,0.00,,,0.00,,2013-05-23 00:01:00,
2013-05-22 17:11:00,79.0,32.0,29.73,South,176,0.0,0.0,18,0.00,,,0.00,,2013-05-23 00:11:00,
2013-05-22 17:21:00,79.0,32.0,29.73,South,176,0.0,0.0,18,0.00,,,0.00,,2013-05-23 00:21:00,
2013-05-22 17:31:00,78.0,31.0,29.72,South,176,0.0,0.0,18,0.00,,,0.00,,2013-05-23 00:31:00,
2013-05-22 18:01:00,75.0,26.0,29.72,North,359,0.0,0.0,16,0.00,,,0.00,,2013-05-23 01:01:00,
2013-05-22 18:11:00,74.0,29.0,29.72,North,359,0.0,0.0,19,0.00,,,0.00,,2013-05-23 01:11:00,
2013-05-22 18:32:00,73.0,37.0,29.73,SSW,193,16.0,20.0,27,0.00,,,0.00,,2013-05-23 01:32:00,
2013-05-22 18:41:00,72.0,40.0,29.73,SSW,197,0.0,0.0,31,0.00,,,0.00,,2013-05-23 01:41:00,
2013-05-22 18:52:00,72.0,40.0,29.73,SSW,197,0.0,0.0,31,0.00,,,0.00,,2013-05-23 01:52:00,
2013-05-22 19:01:00,70.0,36.0,29.73,South,173,0.0,0.0,29,0.00,,,0.00,,2013-05-23 02:01:00,
2013-05-22 19:11:00,68.0,35.0,29.73,South,173,0.0,0.0,29,0.00,,,0.00,,2013-05-23 02:11:00,
2013-05-22 19:21:00,68.0,35.0,29.73,South,173,0.0,0.0,29,0.00,,,0.00,,2013-05-23 02:21:00,
2013-05-22 19:31:00,67.0,32.0,29.73,South,173,0.0,0.0,27,0.00,,,0.00,,2013-05-23 02:31:00,
2013-05-22 19:42:00,67.0,32.0,29.73,South,173,0.0,0.0,27,0.00,,,0.00,,2013-05-23 02:42:00,
2013-05-22 19:51:00,67.0,32.0,29.73,South,173,0.0,0.0,27,0.00,,,0.00,,2013-05-23 02:51:00,
2013-05-22 20:01:00,65.0,37.0,29.74,South,173,0.0,0.0,35,0.00,,,0.00,,2013-05-23 03:01:00,
2013-05-22 20:11:00,64.0,42.0,29.74,South,173,0.0,0.0,45,0.00,,,0.00,,2013-05-23 03:11:00,
2013-05-22 20:21:00,64.0,42.0,29.74,South,173,0.0,0.0,45,0.00,,,0.00,,2013-05-23 03:21:00,
2013-05-22 20:33:00,62.0,44.0,29.75,South,173,0.0,0.0,52,0.00,,,0.00,,2013-05-23 03:33:00,
2013-05-22 20:43:00,62.0,44.0,29.75,South,173,0.0,0.0,52,0.00,,,0.00,,2013-05-23 03:43:00,
2013-05-22 20:53:00,61.0,45.0,29.75,South,173,0.0,0.0,55,0.00,,,0.00,,2013-05-23 03:53:00,
2013-05-22 21:02:00,60.0,46.0,29.75,South,173,0.0,0.0,59,0.00,,,0.00,,2013-05-23 04:02:00,
2013-05-22 21:11:00,59.0,47.0,29.75,SE,132,0.0,0.0,64,0.00,,,0.00,,2013-05-23 04:11:00,
2013-05-22 21:22:00,59.0,47.0,29.75,SE,132,0.0,0.0,64,0.00,,,0.00,,2013-05-23 04:22:00,
2013-05-22 21:32:00,58.0,47.0,29.75,SE,132,0.0,0.0,66,0.00,,,0.00,,2013-05-23 04:32:00,
2013-05-22 21:42:00,58.0,47.0,29.75,SE,132,0.0,0.0,66,0.00,,,0.00,,2013-05-23 04:42:00,
2013-05-22 21:52:00,58.0,47.0,29.75,SE,132,0.0,0.0,68,0.00,,,0.00,,2013-05-23 04:52:00,
2013-05-22 22:02:00,57.0,47.0,29.75,SE,132,0.0,0.0,69,0.00,,,0.00,,2013-05-23 05:02:00,
2013-05-22 22:11:00,57.0,47.0,29.76,SE,132,0.0,0.0,69,0.00,,,0.00,,2013-05-23 05:11:00,
2013-05-22 22:21:00,57.0,47.0,29.76,SE,132,0.0,0.0,69,0.00,,,0.00,,2013-05-23 05:21:00,
2013-05-22 22:32:00,56.0,47.0,29.76,SE,132,0.0,0.0,71,0.00,,,0.00,,2013-05-23 05:32:00,
2013-05-22 22:42:00,55.0,48.0,29.76,SE,132,0.0,0.0,76,0.00,,,0.00,,2013-05-23 05:42:00,
2013-05-22 22:52:00,55.0,48.0,29.76,SE,132,0.0,0.0,76,0.00,,,0.00,,2013-05-23 05:52:00,
2013-05-22 23:02:00,54.0,48.0,29.75,SE,132,0.0,0.0,79,0.00,,,0.00,,2013-05-23 06:02:00,
2013-05-22 23:11:00,54.0,49.0,29.75,SE,132,0.0,0.0,83,0.00,,,0.00,,2013-05-23 06:11:00,
2013-05-22 23:21:00,54.0,49.0,29.75,SE,132,0.0,0.0,83,0.00,,,0.00,,2013-05-23 06:21:00,
2013-05-22 23:31:00,53.0,49.0,29.75,SW,222,0.0,0.0,85,0.00,,,0.00,,2013-05-23 06:31:00,
2013-05-22 23:41:00,53.0,49.0,29.75,SW,222,0.0,0.0,85,0.00,,,0.00,,2013-05-23 06:41:00,
2013-05-22 23:52:00,53.0,49.0,29.75,SW,222,0.0,0.0,87,0.00,,,0.00,,2013-05-23 06:52:00,